Terminal Aerodrome Forecast
Issued by NWS Pocatello, ID

Home | Current Version | Previous Version | Text Only | Print | Product List | Glossary On
Versions: 1 2 3 4 5 6 7 8 9 10 11 12 13 14 15 16 17 18 19
000
FTUS45 KPIH 222300 AAA
TAFPIH
TAF AMD
KPIH 222342Z 2300/2324 VRB06KT P6SM FEW120 SCT250
     FM231600 24015KT P6SM BKN180
     FM231900 25016G26KT P6SM FEW110 BKN180=

USA.gov is the U.S. government's official web portal to all federal, state and local government web resources and services.